createdAt,value
2023-04-17T00:01:10.549Z,6.72
2023-04-17T00:03:37.389Z,6.20
2023-04-17T00:06:04.516Z,5.60
2023-04-17T00:08:31.272Z,6.63
2023-04-17T00:11:07.197Z,6.05
2023-04-17T00:13:35.085Z,5.65
2023-04-17T00:16:01.977Z,6.22
2023-04-17T00:18:28.809Z,5.43
2023-04-17T00:20:55.550Z,5.90
2023-04-17T00:23:22.280Z,6.07
2023-04-17T00:25:48.972Z,8.00
2023-04-17T00:28:17.092Z,6.25
2023-04-17T00:30:43.914Z,6.63
2023-04-17T00:33:10.628Z,6.82
2023-04-17T00:35:37.324Z,5.85
2023-04-17T00:38:04.242Z,8.43
2023-04-17T00:40:31.175Z,6.97
2023-04-17T00:43:00.391Z,7.20
2023-04-17T00:45:28.739Z,8.85
2023-04-17T00:47:57.359Z,7.00
2023-04-17T00:50:24.437Z,6.50
2023-04-17T00:52:51.646Z,6.70
2023-04-17T00:55:19.141Z,9.77
2023-04-17T00:57:46.461Z,8.25
2023-04-17T01:00:13.958Z,8.13
2023-04-17T01:02:42.235Z,9.27
2023-04-17T01:05:09.723Z,8.30
2023-04-17T01:07:37.480Z,8.85
2023-04-17T01:10:04.764Z,6.43
2023-04-17T01:12:31.498Z,6.88
2023-04-17T01:14:58.350Z,9.55
2023-04-17T01:17:26.084Z,6.15
2023-04-17T01:19:55.034Z,6.40
2023-04-17T01:22:21.754Z,7.13
2023-04-17T01:24:50.046Z,8.88
2023-04-17T01:27:16.783Z,7.43
2023-04-17T01:29:44.072Z,6.47
2023-04-17T01:32:11.050Z,7.00
2023-04-17T01:34:37.819Z,9.75
2023-04-17T01:37:04.673Z,8.25
2023-04-17T01:39:31.456Z,7.45
2023-04-17T01:41:59.581Z,5.85
2023-04-17T01:44:26.334Z,13.27
2023-04-17T01:46:53.093Z,12.40
2023-04-17T01:49:19.911Z,7.85
2023-04-17T01:51:46.652Z,8.60
2023-04-17T01:54:13.363Z,9.32
2023-04-17T01:56:40.055Z,14.45
2023-04-17T01:59:08.156Z,11.80
2023-04-17T02:01:34.912Z,8.27
2023-04-17T02:04:01.799Z,10.90
2023-04-17T02:06:28.596Z,8.35
2023-04-17T02:08:55.396Z,12.77
2023-04-17T02:11:22.127Z,9.88
2023-04-17T02:13:48.909Z,11.10
2023-04-17T02:16:17.044Z,9.60
2023-04-17T02:18:43.841Z,7.47
2023-04-17T02:21:10.666Z,12.63
2023-04-17T02:23:37.383Z,10.18
2023-04-17T02:26:04.589Z,14.82
2023-04-17T02:28:31.433Z,11.43
2023-04-17T02:30:58.545Z,12.77
2023-04-17T02:33:26.663Z,9.52
2023-04-17T02:35:53.404Z,10.10
2023-04-17T02:38:20.138Z,9.15
2023-04-17T02:40:46.921Z,8.88
2023-04-17T02:43:13.706Z,10.63
2023-04-17T02:45:40.420Z,12.77
2023-04-17T02:48:07.172Z,12.25
2023-04-17T02:50:35.451Z,12.73
2023-04-17T02:53:02.206Z,15.15
2023-04-17T02:55:28.958Z,12.95
2023-04-17T02:57:55.711Z,11.13
2023-04-17T03:00:22.887Z,13.10
2023-04-17T03:02:49.812Z,16.63
2023-04-17T03:05:19.395Z,12.25
2023-04-17T03:07:47.506Z,15.10
2023-04-17T03:10:14.362Z,15.65
2023-04-17T03:12:41.069Z,13.30
2023-04-17T03:15:09.065Z,18.05
2023-04-17T03:17:35.941Z,14.18
2023-04-17T03:20:02.903Z,13.18
2023-04-17T03:22:29.633Z,13.90
2023-04-17T03:24:57.686Z,12.30
2023-04-17T03:27:24.509Z,11.32
2023-04-17T03:29:51.567Z,12.13
2023-04-17T03:32:18.461Z,13.57
2023-04-17T03:34:45.283Z,11.43
2023-04-17T03:37:13.104Z,14.48
2023-04-17T03:39:39.809Z,14.52
2023-04-17T03:42:08.040Z,14.35
2023-04-17T03:44:34.744Z,12.77
2023-04-17T03:47:01.469Z,11.90
2023-04-17T03:49:28.212Z,12.60
2023-04-17T03:51:54.936Z,7.93
2023-04-17T03:54:21.651Z,13.07
2023-04-17T03:56:48.385Z,12.43
2023-04-17T03:59:16.450Z,9.35
2023-04-17T04:01:45.379Z,10.35
2023-04-17T04:04:13.550Z,8.88
2023-04-17T04:06:40.407Z,10.18
2023-04-17T04:09:07.176Z,12.13
2023-04-17T04:11:34.196Z,8.88
2023-04-17T04:14:00.932Z,8.18
2023-04-17T04:16:29.154Z,10.05
2023-04-17T04:18:55.978Z,10.60
2023-04-17T04:21:22.712Z,9.45
2023-04-17T04:23:49.409Z,8.48
2023-04-17T04:26:16.161Z,11.65
2023-04-17T04:28:42.882Z,13.65
2023-04-17T04:31:10.057Z,9.10
2023-04-17T04:33:38.151Z,10.13
2023-04-17T04:36:05.348Z,12.68
2023-04-17T04:38:32.060Z,11.50
2023-04-17T04:41:00.169Z,10.88
2023-04-17T04:43:27.605Z,9.73
2023-04-17T04:45:54.474Z,12.15
2023-04-17T04:48:21.175Z,10.13
2023-04-17T04:50:49.293Z,11.93
2023-04-17T04:53:16.190Z,9.48
2023-04-17T04:55:42.892Z,11.43
2023-04-17T04:58:09.668Z,9.10
2023-04-17T05:00:36.465Z,12.07
2023-04-17T05:03:03.613Z,10.77
2023-04-17T05:05:30.564Z,9.85
2023-04-17T05:07:58.658Z,14.80
2023-04-17T05:10:25.389Z,13.95
2023-04-17T05:12:52.201Z,9.75
2023-04-17T05:15:18.915Z,12.57
2023-04-17T05:17:45.665Z,11.05
2023-04-17T05:20:13.060Z,11.15
2023-04-17T05:22:39.793Z,11.75
2023-04-17T05:25:08.669Z,12.55
2023-04-17T05:27:35.899Z,13.10
2023-04-17T05:30:02.806Z,12.10
2023-04-17T05:32:29.520Z,10.00
2023-04-17T05:34:56.226Z,11.48
2023-04-17T05:37:22.940Z,11.85
2023-04-17T05:39:49.646Z,11.77
2023-04-17T05:42:17.872Z,10.98
2023-04-17T05:44:44.588Z,11.50
2023-04-17T05:47:11.424Z,12.55
2023-04-17T05:49:38.139Z,11.20
2023-04-17T05:52:05.204Z,13.57
2023-04-17T05:54:31.974Z,10.95
2023-04-17T05:56:58.710Z,11.15
2023-04-17T05:59:26.778Z,11.07
2023-04-17T06:01:53.583Z,14.95
2023-04-17T06:04:20.660Z,14.27
2023-04-17T06:06:47.741Z,13.95
2023-04-17T06:09:14.810Z,14.70
2023-04-17T06:11:41.682Z,14.10
2023-04-17T06:14:08.448Z,14.82
2023-04-17T06:16:36.609Z,14.98
2023-04-17T06:19:03.383Z,15.00
2023-04-17T06:21:30.213Z,12.52
2023-04-17T06:23:56.922Z,14.30
2023-04-17T06:26:23.721Z,15.77
2023-04-17T06:28:50.535Z,15.60
2023-04-17T06:31:17.316Z,14.50
2023-04-17T06:33:45.361Z,16.90
2023-04-17T06:36:12.068Z,14.40
2023-04-17T06:38:38.793Z,13.50
2023-04-17T06:41:05.531Z,13.90
2023-04-17T06:43:32.266Z,11.85
2023-04-17T06:45:59.013Z,13.20
2023-04-17T06:48:25.750Z,13.02
2023-04-17T06:50:53.817Z,12.30
2023-04-17T06:53:20.500Z,11.57
2023-04-17T06:55:47.208Z,11.48
2023-04-17T06:58:14.166Z,11.80
2023-04-17T07:00:40.874Z,12.13
2023-04-17T07:03:07.694Z,12.00
2023-04-17T07:05:34.541Z,13.20
2023-04-17T07:08:02.584Z,12.20
2023-04-17T07:10:29.319Z,12.35
2023-04-17T07:12:56.028Z,12.38
2023-04-17T07:15:22.935Z,17.13
2023-04-17T07:17:49.766Z,14.35
2023-04-17T07:20:16.588Z,13.38
2023-04-17T07:22:43.369Z,10.00
2023-04-17T07:25:11.513Z,12.40
2023-04-17T07:27:38.347Z,10.93
2023-04-17T07:30:07.114Z,12.85
2023-04-17T07:32:33.885Z,11.73
2023-04-17T07:35:00.620Z,10.88
2023-04-17T07:37:27.359Z,12.00
2023-04-17T07:39:54.085Z,12.13
2023-04-17T07:42:22.177Z,11.68
2023-04-17T07:44:48.950Z,12.43
2023-04-17T07:47:15.776Z,11.77
2023-04-17T07:49:42.565Z,11.20
2023-04-17T07:52:09.383Z,11.40
2023-04-17T07:54:36.121Z,13.68
2023-04-17T07:57:02.933Z,12.43
2023-04-17T07:59:31.184Z,11.55
2023-04-17T08:01:58.283Z,15.55
2023-04-17T08:04:25.612Z,12.00
2023-04-17T08:06:52.574Z,12.38
2023-04-17T08:09:21.019Z,13.30
2023-04-17T08:11:56.828Z,11.85
2023-04-17T08:14:24.580Z,12.55
2023-04-17T08:16:52.835Z,9.18
2023-04-17T08:19:19.600Z,12.32
2023-04-17T08:21:47.391Z,11.35
2023-04-17T08:24:14.208Z,12.40
2023-04-17T08:26:40.989Z,18.17
2023-04-17T08:29:07.704Z,13.70
2023-04-17T08:31:34.488Z,15.80
2023-04-17T08:34:13.744Z,13.75
2023-04-17T08:36:42.034Z,13.77
2023-04-17T08:39:08.893Z,11.20
2023-04-17T08:41:43.019Z,10.60
2023-04-17T08:46:37.992Z,10.40
2023-04-17T08:49:06.533Z,11.18
2023-04-17T08:51:33.258Z,11.98
2023-04-17T08:54:00.012Z,10.95
2023-04-17T08:56:28.684Z,10.75
2023-04-17T08:58:55.412Z,10.95
2023-04-17T09:01:22.180Z,9.05
2023-04-17T09:03:49.870Z,14.30
2023-04-17T09:06:18.454Z,10.55
2023-04-17T09:08:55.887Z,9.18
2023-04-17T09:11:22.872Z,12.57
2023-04-17T09:13:49.624Z,9.88
2023-04-17T09:16:16.445Z,12.20
2023-04-17T09:18:43.277Z,10.00
2023-04-17T09:21:10.329Z,12.60
2023-04-17T09:23:49.833Z,11.35
2023-04-17T09:26:17.998Z,14.07
2023-04-17T09:29:03.875Z,12.13
2023-04-17T09:31:32.364Z,11.60
2023-04-17T09:34:00.293Z,11.85
2023-04-17T09:36:27.676Z,12.07
2023-04-17T09:38:56.049Z,11.23
2023-04-17T09:41:23.998Z,11.18
2023-04-17T09:43:51.551Z,10.02
2023-04-17T09:46:34.783Z,8.82
2023-04-17T09:49:07.969Z,10.95
2023-04-17T09:51:35.274Z,8.93
2023-04-17T09:54:04.243Z,10.57
2023-04-17T09:56:31.795Z,8.77
2023-04-17T09:58:58.632Z,14.70
2023-04-17T10:01:26.133Z,11.27
2023-04-17T10:03:53.375Z,8.50
2023-04-17T10:06:20.330Z,9.88
2023-04-17T10:08:47.356Z,9.75
2023-04-17T10:11:15.953Z,10.25
2023-04-17T10:13:46.650Z,8.57
2023-04-17T10:16:13.539Z,9.15
2023-04-17T10:18:40.342Z,7.25
2023-04-17T10:21:21.245Z,7.18
2023-04-17T10:23:48.360Z,12.35
2023-04-17T10:26:38.875Z,6.65
2023-04-17T10:29:07.058Z,7.90
2023-04-17T10:32:10.875Z,9.35
2023-04-17T10:34:38.699Z,8.20
2023-04-17T10:37:06.013Z,9.27
2023-04-17T10:39:51.306Z,9.98
2023-04-17T10:42:19.581Z,11.95
2023-04-17T10:44:48.674Z,10.13
2023-04-17T10:47:19.440Z,11.75
2023-04-17T10:49:51.238Z,11.35
2023-04-17T10:52:37.609Z,9.75
2023-04-17T10:55:05.371Z,11.18
2023-04-17T10:57:58.592Z,13.30
2023-04-17T11:00:31.492Z,11.10
2023-04-17T11:02:59.594Z,8.05
2023-04-17T11:05:26.523Z,10.40
2023-04-17T11:07:53.467Z,9.23
2023-04-17T11:10:21.446Z,8.00
2023-04-17T11:12:48.836Z,11.20
2023-04-17T11:15:16.286Z,6.85
2023-04-17T11:17:48.512Z,7.85
2023-04-17T11:20:20.115Z,7.30
2023-04-17T11:22:47.367Z,8.70
2023-04-17T11:25:25.080Z,8.80
2023-04-17T11:27:56.121Z,7.25
2023-04-17T11:30:30.801Z,9.05
2023-04-17T11:33:00.147Z,8.43
2023-04-17T11:35:32.815Z,5.57
2023-04-17T11:38:07.673Z,8.18
2023-04-17T11:40:34.907Z,9.50
2023-04-17T11:43:08.304Z,9.45
2023-04-17T11:45:36.100Z,9.35
2023-04-17T11:48:04.441Z,9.18
2023-04-17T11:50:32.024Z,10.02
2023-04-17T11:53:00.204Z,9.30
2023-04-17T11:55:27.197Z,9.07
2023-04-17T11:57:54.424Z,10.48
2023-04-17T12:00:21.960Z,11.95
2023-04-17T12:02:48.971Z,11.43
2023-04-17T12:05:17.274Z,10.38
2023-04-17T12:07:44.041Z,7.30
2023-04-17T12:10:10.880Z,5.88
2023-04-17T12:12:37.593Z,4.22
2023-04-17T12:15:05.244Z,3.70
2023-04-17T12:17:32.037Z,3.75
2023-04-17T12:19:58.815Z,4.63
2023-04-17T12:22:26.889Z,4.75
2023-04-17T12:24:53.580Z,5.85
2023-04-17T12:27:20.280Z,4.97
2023-04-17T12:29:47.017Z,5.25
2023-04-17T12:32:13.743Z,5.68
2023-04-17T12:34:40.581Z,4.70
2023-04-17T12:37:07.320Z,4.13
2023-04-17T12:39:35.393Z,4.15
2023-04-17T12:42:02.180Z,6.28
2023-04-17T12:44:28.880Z,4.43
2023-04-17T12:46:55.861Z,4.50
2023-04-17T12:49:22.619Z,2.95
2023-04-17T12:51:49.358Z,3.30
2023-04-17T12:54:16.102Z,4.38
2023-04-17T12:56:44.167Z,4.75
2023-04-17T12:59:10.891Z,3.80
2023-04-17T13:01:37.850Z,3.47
2023-04-17T13:04:05.266Z,3.63
2023-04-17T13:06:32.241Z,4.30
2023-04-17T13:08:58.952Z,5.43
2023-04-17T13:11:25.726Z,4.20
2023-04-17T13:13:53.772Z,4.97
2023-04-17T13:16:20.617Z,6.60
2023-04-17T13:18:47.387Z,5.05
2023-04-17T13:21:14.116Z,8.07
2023-04-17T13:23:40.844Z,7.72
2023-04-17T13:26:07.611Z,6.47
2023-04-17T13:28:34.384Z,9.13
2023-04-17T13:31:02.478Z,6.10
2023-04-17T13:33:29.224Z,4.97
2023-04-17T13:35:55.984Z,6.10
2023-04-17T13:38:22.707Z,9.02
2023-04-17T13:40:49.437Z,5.40
2023-04-17T13:43:16.176Z,5.60
2023-04-17T13:45:42.970Z,5.32
2023-04-17T13:48:11.238Z,4.70
2023-04-17T13:50:37.966Z,4.60
2023-04-17T13:53:05.009Z,4.10
2023-04-17T13:55:31.993Z,6.30
2023-04-17T13:57:58.687Z,3.03
2023-04-17T14:00:25.720Z,3.13
2023-04-17T14:02:52.818Z,4.03
2023-04-17T14:05:21.281Z,2.50
2023-04-17T14:07:48.104Z,2.42
2023-04-17T14:10:14.830Z,3.45
2023-04-17T14:12:41.632Z,2.83
2023-04-17T14:15:09.382Z,3.35
2023-04-17T14:17:36.143Z,2.45
2023-04-17T14:20:03.172Z,3.47
2023-04-17T14:22:31.271Z,2.30
2023-04-17T14:24:57.990Z,3.53
2023-04-17T14:27:24.889Z,2.67
2023-04-17T14:29:51.630Z,2.58
2023-04-17T14:32:18.398Z,1.63
2023-04-17T14:34:45.121Z,2.53
2023-04-17T14:37:11.989Z,8.10
2023-04-17T14:39:40.065Z,3.60
2023-04-17T14:42:06.802Z,3.05
2023-04-17T14:44:33.908Z,3.53
2023-04-17T14:47:00.684Z,2.78
2023-04-17T14:49:29.045Z,3.35
2023-04-17T14:51:55.863Z,3.20
2023-04-17T14:54:22.626Z,5.53
2023-04-17T14:56:50.829Z,3.10
2023-04-17T14:59:17.724Z,3.55
2023-04-17T15:01:44.661Z,2.47
2023-04-17T15:04:11.692Z,4.03
2023-04-17T15:06:38.705Z,2.65
2023-04-17T15:09:05.418Z,2.63
2023-04-17T15:11:32.237Z,2.45
2023-04-17T15:14:00.585Z,3.55
2023-04-17T15:16:27.469Z,3.03
2023-04-17T15:18:54.251Z,4.07
2023-04-17T15:21:20.989Z,3.67
2023-04-17T15:23:47.728Z,3.63
2023-04-17T15:26:14.534Z,5.95
2023-04-17T15:28:41.437Z,5.00
2023-04-17T15:31:09.616Z,3.78
2023-04-17T15:33:37.303Z,4.55
2023-04-17T15:36:04.226Z,3.60
2023-04-17T15:38:30.974Z,5.28
2023-04-17T15:40:57.707Z,3.95
2023-04-17T15:43:24.548Z,5.38
2023-04-17T15:45:51.926Z,3.63
2023-04-17T15:48:20.143Z,4.65
2023-04-17T15:50:46.874Z,3.50
2023-04-17T15:53:13.609Z,4.07
2023-04-17T15:55:40.611Z,5.40
2023-04-17T15:58:07.311Z,3.42
2023-04-17T16:00:34.037Z,3.63
2023-04-17T16:03:00.935Z,3.58
2023-04-17T16:05:30.448Z,3.08
2023-04-17T16:07:57.313Z,3.17
2023-04-17T16:10:24.164Z,3.33
2023-04-17T16:12:51.106Z,4.30
2023-04-17T16:15:17.982Z,3.70
2023-04-17T16:17:45.660Z,6.00
2023-04-17T16:20:13.299Z,3.38
2023-04-17T16:22:41.348Z,3.35
2023-04-17T16:25:09.092Z,3.05
2023-04-17T16:27:37.946Z,3.10
2023-04-17T16:30:05.906Z,3.47
2023-04-17T16:32:32.662Z,3.13
2023-04-17T16:34:59.660Z,3.08
2023-04-17T16:37:26.678Z,3.85
2023-04-17T16:39:54.754Z,4.05
2023-04-17T16:42:21.453Z,3.65
2023-04-17T16:44:48.254Z,4.82
2023-04-17T16:47:15.495Z,3.95
2023-04-17T16:49:42.380Z,3.55
2023-04-17T16:52:09.496Z,3.05
2023-04-17T16:54:36.253Z,2.95
2023-04-17T16:57:04.617Z,3.03
2023-04-17T16:59:31.360Z,4.15
2023-04-17T17:02:00.048Z,2.50
2023-04-17T17:04:28.282Z,3.15
2023-04-17T17:06:55.075Z,3.78
2023-04-17T17:09:22.094Z,4.00
2023-04-17T17:11:48.836Z,4.85
2023-04-17T17:14:17.015Z,5.13
2023-04-17T17:16:43.804Z,4.97
2023-04-17T17:19:10.835Z,2.65
2023-04-17T17:21:37.794Z,2.10
2023-04-17T17:24:05.386Z,2.20
2023-04-17T17:26:32.120Z,2.95
2023-04-17T17:28:58.856Z,2.53
2023-04-17T17:31:26.973Z,4.57
2023-04-17T17:33:53.715Z,2.38
2023-04-17T17:36:20.587Z,3.63
2023-04-17T17:38:47.487Z,3.28
2023-04-17T17:41:14.232Z,2.13
2023-04-17T17:43:40.942Z,5.75
2023-04-17T17:46:07.808Z,31.85
2023-04-17T17:48:35.932Z,9.20
2023-04-17T17:51:02.850Z,65.78
2023-04-17T17:53:29.560Z,46.55
2023-04-17T17:55:56.695Z,39.03
2023-04-17T17:58:23.921Z,21.15
2023-04-17T18:00:50.971Z,17.40
2023-04-17T18:03:18.247Z,9.43
2023-04-17T18:05:47.063Z,13.55
2023-04-17T18:08:14.178Z,9.25
2023-04-17T18:10:40.915Z,6.05
2023-04-17T18:13:07.810Z,8.75
2023-04-17T18:15:36.102Z,3.95
2023-04-17T18:18:03.070Z,10.98
2023-04-17T18:20:29.860Z,57.13
2023-04-17T18:22:57.987Z,13.98
2023-04-17T18:25:24.735Z,3.47
2023-04-17T18:27:51.537Z,4.32
2023-04-17T18:30:18.317Z,4.07
2023-04-17T18:32:45.108Z,2.47
2023-04-17T18:35:12.008Z,5.10
2023-04-17T18:37:38.710Z,4.28
2023-04-17T18:40:08.191Z,4.05
2023-04-17T18:42:34.947Z,9.70
2023-04-17T18:45:01.815Z,19.40
2023-04-17T18:47:28.721Z,45.20
2023-04-17T18:49:55.460Z,32.13
2023-04-17T18:52:22.404Z,11.60
2023-04-17T18:54:49.265Z,6.25
2023-04-17T18:57:17.716Z,5.85
2023-04-17T18:59:44.466Z,7.85
2023-04-17T19:02:11.261Z,4.30
2023-04-17T19:04:38.099Z,4.80
2023-04-17T19:07:04.933Z,3.53
2023-04-17T19:09:31.786Z,3.45
2023-04-17T19:11:58.722Z,2.53
2023-04-17T19:14:26.918Z,3.47
2023-04-17T19:16:53.718Z,2.30
2023-04-17T19:19:20.512Z,2.45
2023-04-17T19:21:47.375Z,2.35
2023-04-17T19:24:14.331Z,2.03
2023-04-17T19:26:41.092Z,2.45
2023-04-17T19:29:07.963Z,2.13
2023-04-17T19:31:36.125Z,3.00
2023-04-17T19:34:03.139Z,2.10
2023-04-17T19:36:29.862Z,2.08
2023-04-17T19:38:56.703Z,3.00
2023-04-17T19:41:23.423Z,1.95
2023-04-17T19:43:52.176Z,4.07
2023-04-17T19:46:20.229Z,2.85
2023-04-17T19:48:48.798Z,3.15
2023-04-17T19:51:16.126Z,3.05
2023-04-17T19:53:44.126Z,3.60
2023-04-17T19:56:11.239Z,1.67
2023-04-17T19:58:38.688Z,2.45
2023-04-17T20:01:05.691Z,1.70
2023-04-17T20:03:33.148Z,7.28
2023-04-17T20:06:01.400Z,7.43
2023-04-17T20:08:28.224Z,3.42
2023-04-17T20:10:55.025Z,8.68
2023-04-17T20:13:21.814Z,8.65
2023-04-17T20:15:48.554Z,11.48
2023-04-17T20:18:15.379Z,3.00
2023-04-17T20:20:42.139Z,9.48
2023-04-17T20:23:10.265Z,5.15
2023-04-17T20:25:36.979Z,3.53
2023-04-17T20:28:03.791Z,2.92
2023-04-17T20:30:30.695Z,2.63
2023-04-17T20:32:57.642Z,3.97
2023-04-17T20:35:24.610Z,5.13
2023-04-17T20:37:51.999Z,3.35
2023-04-17T20:40:20.283Z,3.40
2023-04-17T20:42:47.732Z,10.13
2023-04-17T20:45:14.510Z,3.80
2023-04-17T20:47:55.479Z,7.47
2023-04-17T20:50:23.868Z,4.10
2023-04-17T20:52:50.714Z,3.55
2023-04-17T20:55:17.513Z,5.55
2023-04-17T20:57:46.085Z,5.15
2023-04-17T21:00:13.697Z,3.30
2023-04-17T21:02:40.759Z,3.83
2023-04-17T21:05:08.207Z,2.83
2023-04-17T21:07:35.292Z,3.78
2023-04-17T21:10:02.547Z,5.60
2023-04-17T21:12:29.335Z,6.30
2023-04-17T21:14:57.405Z,10.60
2023-04-17T21:17:24.441Z,18.02
2023-04-17T21:19:51.294Z,9.40
2023-04-17T21:22:18.103Z,26.20
2023-04-17T21:24:44.820Z,7.55
2023-04-17T21:27:11.541Z,23.70
2023-04-17T21:29:38.280Z,18.55
2023-04-17T21:32:06.860Z,39.95
2023-04-17T21:34:34.398Z,5.65
2023-04-17T21:37:01.131Z,9.23
2023-04-17T21:39:27.882Z,27.83
2023-04-17T21:41:54.591Z,15.75
2023-04-17T21:44:21.351Z,3.13
2023-04-17T21:46:48.095Z,14.73
2023-04-17T21:49:17.688Z,11.07
2023-04-17T21:51:44.428Z,34.88
2023-04-17T21:54:11.365Z,31.17
2023-04-17T21:56:38.338Z,24.10
2023-04-17T21:59:05.040Z,19.73
2023-04-17T22:01:31.818Z,4.00
2023-04-17T22:03:58.597Z,6.70
2023-04-17T22:06:26.669Z,7.65
2023-04-17T22:08:53.458Z,5.38
2023-04-17T22:11:20.157Z,4.22
2023-04-17T22:13:46.860Z,4.45
2023-04-17T22:16:13.660Z,4.38
2023-04-17T22:18:40.417Z,5.95
2023-04-17T22:21:07.477Z,4.70
2023-04-17T22:23:35.543Z,5.82
2023-04-17T22:26:02.270Z,8.23
2023-04-17T22:28:29.491Z,6.13
2023-04-17T22:30:56.292Z,6.07
2023-04-17T22:33:23.055Z,7.10
2023-04-17T22:35:49.839Z,7.13
2023-04-17T22:38:16.527Z,6.95
2023-04-17T22:40:44.575Z,7.18
2023-04-17T22:43:11.326Z,5.72
2023-04-17T22:45:38.137Z,8.43
2023-04-17T22:48:05.295Z,8.43
2023-04-17T22:50:32.029Z,8.70
2023-04-17T22:52:58.710Z,6.03
2023-04-17T22:55:25.493Z,8.13
2023-04-17T22:57:53.570Z,11.43
2023-04-17T23:00:20.443Z,7.63
2023-04-17T23:02:47.373Z,8.32
2023-04-17T23:05:14.475Z,8.80
2023-04-17T23:07:41.420Z,10.65
2023-04-17T23:10:09.099Z,9.10
2023-04-17T23:12:35.879Z,7.53
2023-04-17T23:15:04.706Z,11.98
2023-04-17T23:17:31.419Z,12.13
2023-04-17T23:19:58.224Z,8.95
2023-04-17T23:22:25.054Z,9.23
2023-04-17T23:24:51.878Z,10.55
2023-04-17T23:27:18.648Z,8.93
2023-04-17T23:29:45.335Z,10.75
2023-04-17T23:32:13.393Z,14.82
2023-04-17T23:34:40.217Z,12.52
2023-04-17T23:37:06.973Z,13.43
2023-04-17T23:39:34.303Z,13.75
2023-04-17T23:42:01.020Z,12.45
2023-04-17T23:44:27.713Z,12.93
2023-04-17T23:46:54.456Z,12.57
2023-04-17T23:49:22.518Z,12.43
2023-04-17T23:51:49.221Z,13.13
2023-04-17T23:54:16.123Z,13.18
2023-04-17T23:56:42.933Z,14.93
2023-04-17T23:59:09.836Z,15.65
